sensor_id;sensor_type;location;lat;lon;timestamp;P1;durP1;ratioP1;P2;durP2;ratioP2
4636;SDS011;2331;48.806;9.140;2023-03-12T00:00:00;3.17;;;2.20;;
4636;SDS011;2331;48.806;9.140;2023-03-12T00:02:28;3.60;;;2.20;;
4636;SDS011;2331;48.806;9.140;2023-03-12T00:04:55;5.57;;;2.45;;
4636;SDS011;2331;48.806;9.140;2023-03-12T00:07:22;5.88;;;2.00;;
4636;SDS011;2331;48.806;9.140;2023-03-12T00:09:48;3.03;;;1.75;;
4636;SDS011;2331;48.806;9.140;2023-03-12T00:12:15;5.18;;;2.53;;
4636;SDS011;2331;48.806;9.140;2023-03-12T00:14:42;4.18;;;1.95;;
4636;SDS011;2331;48.806;9.140;2023-03-12T00:17:10;4.38;;;2.10;;
4636;SDS011;2331;48.806;9.140;2023-03-12T00:19:36;2.33;;;1.80;;
4636;SDS011;2331;48.806;9.140;2023-03-12T00:22:03;6.43;;;2.60;;
4636;SDS011;2331;48.806;9.140;2023-03-12T00:24:30;5.38;;;2.35;;
4636;SDS011;2331;48.806;9.140;2023-03-12T00:26:56;5.88;;;2.10;;
4636;SDS011;2331;48.806;9.140;2023-03-12T00:29:23;4.32;;;2.25;;
4636;SDS011;2331;48.806;9.140;2023-03-12T00:31:50;5.70;;;2.10;;
4636;SDS011;2331;48.806;9.140;2023-03-12T00:34:18;4.13;;;1.83;;
4636;SDS011;2331;48.806;9.140;2023-03-12T00:36:45;4.10;;;2.13;;
4636;SDS011;2331;48.806;9.140;2023-03-12T00:39:11;5.20;;;2.10;;
4636;SDS011;2331;48.806;9.140;2023-03-12T00:41:38;4.63;;;2.10;;
4636;SDS011;2331;48.806;9.140;2023-03-12T00:44:05;5.57;;;2.75;;
4636;SDS011;2331;48.806;9.140;2023-03-12T00:46:31;3.33;;;2.17;;
4636;SDS011;2331;48.806;9.140;2023-03-12T00:48:58;5.38;;;2.75;;
4636;SDS011;2331;48.806;9.140;2023-03-12T00:51:26;9.52;;;2.40;;
4636;SDS011;2331;48.806;9.140;2023-03-12T00:53:53;7.60;;;2.72;;
4636;SDS011;2331;48.806;9.140;2023-03-12T00:56:20;4.75;;;2.45;;
4636;SDS011;2331;48.806;9.140;2023-03-12T00:58:47;4.60;;;2.42;;
4636;SDS011;2331;48.806;9.140;2023-03-12T01:01:14;4.00;;;2.88;;
4636;SDS011;2331;48.806;9.140;2023-03-12T01:03:40;11.45;;;3.10;;
4636;SDS011;2331;48.806;9.140;2023-03-12T01:06:07;6.78;;;2.80;;
4636;SDS011;2331;48.806;9.140;2023-03-12T01:08:36;5.05;;;2.65;;
4636;SDS011;2331;48.806;9.140;2023-03-12T01:11:03;4.70;;;2.65;;
4636;SDS011;2331;48.806;9.140;2023-03-12T01:13:30;4.63;;;2.40;;
4636;SDS011;2331;48.806;9.140;2023-03-12T01:15:57;4.97;;;2.75;;
4636;SDS011;2331;48.806;9.140;2023-03-12T01:18:23;6.20;;;2.58;;
4636;SDS011;2331;48.806;9.140;2023-03-12T01:20:50;5.88;;;3.10;;
4636;SDS011;2331;48.806;9.140;2023-03-12T01:23:17;5.65;;;2.80;;
4636;SDS011;2331;48.806;9.140;2023-03-12T01:25:45;4.03;;;2.65;;
4636;SDS011;2331;48.806;9.140;2023-03-12T01:28:12;9.10;;;2.63;;
4636;SDS011;2331;48.806;9.140;2023-03-12T01:30:39;8.55;;;3.63;;
4636;SDS011;2331;48.806;9.140;2023-03-12T01:33:05;6.80;;;2.95;;
4636;SDS011;2331;48.806;9.140;2023-03-12T01:35:34;7.53;;;3.78;;
4636;SDS011;2331;48.806;9.140;2023-03-12T01:38:01;8.57;;;3.03;;
4636;SDS011;2331;48.806;9.140;2023-03-12T01:40:28;5.68;;;3.05;;
4636;SDS011;2331;48.806;9.140;2023-03-12T01:43:01;8.38;;;2.97;;
4636;SDS011;2331;48.806;9.140;2023-03-12T01:46:02;6.00;;;2.58;;
4636;SDS011;2331;48.806;9.140;2023-03-12T01:48:34;6.35;;;2.63;;
4636;SDS011;2331;48.806;9.140;2023-03-12T01:51:03;5.05;;;2.92;;
4636;SDS011;2331;48.806;9.140;2023-03-12T01:53:30;7.40;;;3.30;;
4636;SDS011;2331;48.806;9.140;2023-03-12T01:55:57;6.03;;;3.50;;
4636;SDS011;2331;48.806;9.140;2023-03-12T01:58:28;7.95;;;3.45;;
4636;SDS011;2331;48.806;9.140;2023-03-12T02:00:57;8.85;;;4.18;;
4636;SDS011;2331;48.806;9.140;2023-03-12T02:03:24;6.65;;;3.72;;
4636;SDS011;2331;48.806;9.140;2023-03-12T02:05:53;8.75;;;3.80;;
4636;SDS011;2331;48.806;9.140;2023-03-12T02:08:22;8.27;;;3.92;;
4636;SDS011;2331;48.806;9.140;2023-03-12T02:10:49;5.60;;;3.30;;
4636;SDS011;2331;48.806;9.140;2023-03-12T02:13:16;10.25;;;4.55;;
4636;SDS011;2331;48.806;9.140;2023-03-12T02:15:44;8.75;;;3.97;;
4636;SDS011;2331;48.806;9.140;2023-03-12T02:18:12;8.10;;;4.10;;
4636;SDS011;2331;48.806;9.140;2023-03-12T02:20:44;8.65;;;4.30;;
4636;SDS011;2331;48.806;9.140;2023-03-12T02:23:16;4.70;;;3.10;;
4636;SDS011;2331;48.806;9.140;2023-03-12T02:25:48;6.15;;;3.50;;
4636;SDS011;2331;48.806;9.140;2023-03-12T02:28:18;5.70;;;3.30;;
4636;SDS011;2331;48.806;9.140;2023-03-12T02:30:48;6.90;;;2.95;;
4636;SDS011;2331;48.806;9.140;2023-03-12T02:33:17;7.88;;;3.10;;
4636;SDS011;2331;48.806;9.140;2023-03-12T02:35:45;7.07;;;3.10;;
4636;SDS011;2331;48.806;9.140;2023-03-12T02:38:33;7.22;;;3.67;;
4636;SDS011;2331;48.806;9.140;2023-03-12T02:41:09;8.60;;;4.18;;
4636;SDS011;2331;48.806;9.140;2023-03-12T02:43:38;9.77;;;4.65;;
4636;SDS011;2331;48.806;9.140;2023-03-12T02:46:05;6.38;;;3.40;;
4636;SDS011;2331;48.806;9.140;2023-03-12T02:48:33;8.30;;;3.30;;
4636;SDS011;2331;48.806;9.140;2023-03-12T02:51:00;10.38;;;4.57;;
4636;SDS011;2331;48.806;9.140;2023-03-12T02:53:27;9.98;;;4.20;;
4636;SDS011;2331;48.806;9.140;2023-03-12T02:55:54;6.63;;;3.92;;
4636;SDS011;2331;48.806;9.140;2023-03-12T02:58:22;8.65;;;3.80;;
4636;SDS011;2331;48.806;9.140;2023-03-12T03:00:49;7.80;;;3.80;;
4636;SDS011;2331;48.806;9.140;2023-03-12T03:03:16;8.80;;;3.65;;
4636;SDS011;2331;48.806;9.140;2023-03-12T03:05:43;6.78;;;3.72;;
4636;SDS011;2331;48.806;9.140;2023-03-12T03:08:10;7.75;;;4.40;;
4636;SDS011;2331;48.806;9.140;2023-03-12T03:10:36;6.40;;;3.88;;
4636;SDS011;2331;48.806;9.140;2023-03-12T03:13:03;6.60;;;4.15;;
4636;SDS011;2331;48.806;9.140;2023-03-12T03:15:31;6.40;;;3.83;;
4636;SDS011;2331;48.806;9.140;2023-03-12T03:17:58;8.00;;;4.30;;
4636;SDS011;2331;48.806;9.140;2023-03-12T03:20:27;7.82;;;4.97;;
4636;SDS011;2331;48.806;9.140;2023-03-12T03:22:54;7.57;;;4.60;;
4636;SDS011;2331;48.806;9.140;2023-03-12T03:25:21;9.05;;;5.03;;
4636;SDS011;2331;48.806;9.140;2023-03-12T03:27:48;8.40;;;4.57;;
4636;SDS011;2331;48.806;9.140;2023-03-12T03:30:16;8.23;;;4.50;;
4636;SDS011;2331;48.806;9.140;2023-03-12T03:32:44;10.38;;;4.70;;
4636;SDS011;2331;48.806;9.140;2023-03-12T03:35:11;11.77;;;5.07;;
4636;SDS011;2331;48.806;9.140;2023-03-12T03:37:37;10.82;;;5.03;;
4636;SDS011;2331;48.806;9.140;2023-03-12T03:40:05;12.52;;;5.22;;
4636;SDS011;2331;48.806;9.140;2023-03-12T03:42:35;9.15;;;5.07;;
4636;SDS011;2331;48.806;9.140;2023-03-12T03:45:02;9.10;;;4.85;;
4636;SDS011;2331;48.806;9.140;2023-03-12T03:47:30;10.13;;;5.43;;
4636;SDS011;2331;48.806;9.140;2023-03-12T03:49:58;9.07;;;5.25;;
4636;SDS011;2331;48.806;9.140;2023-03-12T03:52:25;11.55;;;5.25;;
4636;SDS011;2331;48.806;9.140;2023-03-12T03:54:51;10.80;;;5.00;;
4636;SDS011;2331;48.806;9.140;2023-03-12T03:57:18;10.32;;;4.97;;
4636;SDS011;2331;48.806;9.140;2023-03-12T03:59:45;13.10;;;6.07;;
4636;SDS011;2331;48.806;9.140;2023-03-12T04:02:12;9.27;;;5.25;;
4636;SDS011;2331;48.806;9.140;2023-03-12T04:04:38;10.07;;;5.97;;
4636;SDS011;2331;48.806;9.140;2023-03-12T04:07:06;8.82;;;5.35;;
4636;SDS011;2331;48.806;9.140;2023-03-12T04:09:33;11.20;;;5.78;;
4636;SDS011;2331;48.806;9.140;2023-03-12T04:11:59;13.65;;;6.35;;
4636;SDS011;2331;48.806;9.140;2023-03-12T04:14:26;9.77;;;5.28;;
4636;SDS011;2331;48.806;9.140;2023-03-12T04:16:53;9.43;;;5.28;;
4636;SDS011;2331;48.806;9.140;2023-03-12T04:19:19;11.93;;;5.50;;
4636;SDS011;2331;48.806;9.140;2023-03-12T04:21:46;7.97;;;5.00;;
4636;SDS011;2331;48.806;9.140;2023-03-12T04:24:14;11.23;;;6.22;;
4636;SDS011;2331;48.806;9.140;2023-03-12T04:26:42;11.57;;;6.25;;
4636;SDS011;2331;48.806;9.140;2023-03-12T04:29:09;8.70;;;5.88;;
4636;SDS011;2331;48.806;9.140;2023-03-12T04:31:35;9.57;;;5.88;;
4636;SDS011;2331;48.806;9.140;2023-03-12T04:34:02;12.00;;;6.15;;
4636;SDS011;2331;48.806;9.140;2023-03-12T04:36:29;12.93;;;5.90;;
4636;SDS011;2331;48.806;9.140;2023-03-12T04:38:55;9.50;;;5.57;;
4636;SDS011;2331;48.806;9.140;2023-03-12T04:41:23;12.70;;;4.95;;
4636;SDS011;2331;48.806;9.140;2023-03-12T04:43:50;9.25;;;5.60;;
4636;SDS011;2331;48.806;9.140;2023-03-12T04:46:17;12.43;;;5.40;;
4636;SDS011;2331;48.806;9.140;2023-03-12T04:48:44;10.70;;;5.70;;
4636;SDS011;2331;48.806;9.140;2023-03-12T04:51:11;12.52;;;5.28;;
4636;SDS011;2331;48.806;9.140;2023-03-12T04:53:38;10.30;;;5.30;;
4636;SDS011;2331;48.806;9.140;2023-03-12T04:56:05;8.70;;;5.03;;
4636;SDS011;2331;48.806;9.140;2023-03-12T04:58:33;7.47;;;4.55;;
4636;SDS011;2331;48.806;9.140;2023-03-12T05:01:00;9.15;;;5.20;;
4636;SDS011;2331;48.806;9.140;2023-03-12T05:03:27;10.10;;;5.00;;
4636;SDS011;2331;48.806;9.140;2023-03-12T05:05:54;13.45;;;5.07;;
4636;SDS011;2331;48.806;9.140;2023-03-12T05:08:21;10.10;;;5.40;;
4636;SDS011;2331;48.806;9.140;2023-03-12T05:10:48;10.38;;;4.97;;
4636;SDS011;2331;48.806;9.140;2023-03-12T05:13:15;11.27;;;5.40;;
4636;SDS011;2331;48.806;9.140;2023-03-12T05:15:45;10.40;;;5.60;;
4636;SDS011;2331;48.806;9.140;2023-03-12T05:18:14;8.32;;;5.18;;
4636;SDS011;2331;48.806;9.140;2023-03-12T05:20:42;10.63;;;5.35;;
4636;SDS011;2331;48.806;9.140;2023-03-12T05:23:08;12.27;;;4.80;;
4636;SDS011;2331;48.806;9.140;2023-03-12T05:25:37;10.93;;;4.65;;
4636;SDS011;2331;48.806;9.140;2023-03-12T05:28:05;9.13;;;4.82;;
4636;SDS011;2331;48.806;9.140;2023-03-12T05:30:32;10.10;;;5.57;;
4636;SDS011;2331;48.806;9.140;2023-03-12T05:33:00;15.18;;;5.03;;
4636;SDS011;2331;48.806;9.140;2023-03-12T05:35:26;9.45;;;5.10;;
4636;SDS011;2331;48.806;9.140;2023-03-12T05:37:53;10.95;;;5.07;;
4636;SDS011;2331;48.806;9.140;2023-03-12T05:40:19;8.63;;;5.20;;
4636;SDS011;2331;48.806;9.140;2023-03-12T05:42:46;9.13;;;5.22;;
4636;SDS011;2331;48.806;9.140;2023-03-12T05:45:13;9.10;;;5.32;;
4636;SDS011;2331;48.806;9.140;2023-03-12T05:47:39;10.32;;;5.93;;
4636;SDS011;2331;48.806;9.140;2023-03-12T05:50:08;12.43;;;6.05;;
4636;SDS011;2331;48.806;9.140;2023-03-12T05:52:36;12.88;;;4.80;;
4636;SDS011;2331;48.806;9.140;2023-03-12T05:55:03;15.77;;;5.75;;
4636;SDS011;2331;48.806;9.140;2023-03-12T05:57:30;11.85;;;6.28;;
4636;SDS011;2331;48.806;9.140;2023-03-12T05:59:57;12.20;;;6.22;;
4636;SDS011;2331;48.806;9.140;2023-03-12T06:02:23;11.82;;;5.78;;
4636;SDS011;2331;48.806;9.140;2023-03-12T06:04:50;8.88;;;5.85;;
4636;SDS011;2331;48.806;9.140;2023-03-12T06:07:19;12.20;;;5.50;;
4636;SDS011;2331;48.806;9.140;2023-03-12T06:09:46;9.20;;;5.35;;
4636;SDS011;2331;48.806;9.140;2023-03-12T06:12:13;14.40;;;5.80;;
4636;SDS011;2331;48.806;9.140;2023-03-12T06:14:39;8.27;;;5.40;;
4636;SDS011;2331;48.806;9.140;2023-03-12T06:17:06;7.20;;;4.53;;
4636;SDS011;2331;48.806;9.140;2023-03-12T06:19:33;9.88;;;5.30;;
4636;SDS011;2331;48.806;9.140;2023-03-12T06:21:59;10.88;;;5.65;;
4636;SDS011;2331;48.806;9.140;2023-03-12T06:24:27;9.93;;;5.00;;
4636;SDS011;2331;48.806;9.140;2023-03-12T06:26:54;10.75;;;5.15;;
4636;SDS011;2331;48.806;9.140;2023-03-12T06:29:21;6.50;;;3.92;;
4636;SDS011;2331;48.806;9.140;2023-03-12T06:31:48;6.85;;;3.95;;
4636;SDS011;2331;48.806;9.140;2023-03-12T06:34:16;8.25;;;4.05;;
4636;SDS011;2331;48.806;9.140;2023-03-12T06:36:42;7.13;;;4.38;;
4636;SDS011;2331;48.806;9.140;2023-03-12T06:39:10;8.30;;;4.57;;
4636;SDS011;2331;48.806;9.140;2023-03-12T06:41:38;11.55;;;4.72;;
4636;SDS011;2331;48.806;9.140;2023-03-12T06:44:05;9.30;;;4.53;;
4636;SDS011;2331;48.806;9.140;2023-03-12T06:46:32;5.47;;;4.10;;
4636;SDS011;2331;48.806;9.140;2023-03-12T06:48:59;5.93;;;4.05;;
4636;SDS011;2331;48.806;9.140;2023-03-12T06:51:25;7.25;;;4.20;;
4636;SDS011;2331;48.806;9.140;2023-03-12T06:53:52;8.23;;;5.00;;
4636;SDS011;2331;48.806;9.140;2023-03-12T06:56:19;8.93;;;4.40;;
4636;SDS011;2331;48.806;9.140;2023-03-12T06:58:47;7.45;;;4.53;;
4636;SDS011;2331;48.806;9.140;2023-03-12T07:01:14;7.80;;;4.10;;
4636;SDS011;2331;48.806;9.140;2023-03-12T07:03:40;6.60;;;4.40;;
4636;SDS011;2331;48.806;9.140;2023-03-12T07:06:11;6.82;;;4.45;;
4636;SDS011;2331;48.806;9.140;2023-03-12T07:08:39;11.32;;;4.68;;
4636;SDS011;2331;48.806;9.140;2023-03-12T07:11:07;10.65;;;4.05;;
4636;SDS011;2331;48.806;9.140;2023-03-12T07:13:34;6.28;;;3.85;;
4636;SDS011;2331;48.806;9.140;2023-03-12T07:16:02;6.70;;;4.10;;
4636;SDS011;2331;48.806;9.140;2023-03-12T07:18:30;7.90;;;4.20;;
4636;SDS011;2331;48.806;9.140;2023-03-12T07:20:57;5.90;;;4.00;;
4636;SDS011;2331;48.806;9.140;2023-03-12T07:23:23;10.55;;;4.38;;
4636;SDS011;2331;48.806;9.140;2023-03-12T07:25:50;6.60;;;4.32;;
4636;SDS011;2331;48.806;9.140;2023-03-12T07:28:18;6.13;;;3.58;;
4636;SDS011;2331;48.806;9.140;2023-03-12T07:30:45;5.28;;;3.92;;
4636;SDS011;2331;48.806;9.140;2023-03-12T07:33:16;8.45;;;3.75;;
4636;SDS011;2331;48.806;9.140;2023-03-12T07:35:44;7.38;;;4.40;;
4636;SDS011;2331;48.806;9.140;2023-03-12T07:38:12;5.28;;;3.88;;
4636;SDS011;2331;48.806;9.140;2023-03-12T07:40:39;8.38;;;4.20;;
4636;SDS011;2331;48.806;9.140;2023-03-12T07:43:05;7.07;;;4.20;;
4636;SDS011;2331;48.806;9.140;2023-03-12T07:45:35;5.43;;;3.80;;
4636;SDS011;2331;48.806;9.140;2023-03-12T07:48:02;10.05;;;4.68;;
4636;SDS011;2331;48.806;9.140;2023-03-12T07:50:31;10.35;;;4.53;;
4636;SDS011;2331;48.806;9.140;2023-03-12T07:52:57;7.60;;;4.30;;
4636;SDS011;2331;48.806;9.140;2023-03-12T07:55:24;11.05;;;4.30;;
4636;SDS011;2331;48.806;9.140;2023-03-12T07:57:51;8.50;;;4.72;;
4636;SDS011;2331;48.806;9.140;2023-03-12T08:00:20;6.57;;;4.15;;
4636;SDS011;2331;48.806;9.140;2023-03-12T08:02:47;7.28;;;4.38;;
4636;SDS011;2331;48.806;9.140;2023-03-12T08:05:14;7.60;;;4.55;;
4636;SDS011;2331;48.806;9.140;2023-03-12T08:07:42;9.00;;;4.38;;
4636;SDS011;2331;48.806;9.140;2023-03-12T08:10:09;8.07;;;4.43;;
4636;SDS011;2331;48.806;9.140;2023-03-12T08:12:36;8.35;;;5.05;;
4636;SDS011;2331;48.806;9.140;2023-03-12T08:15:03;10.40;;;4.90;;
4636;SDS011;2331;48.806;9.140;2023-03-12T08:17:30;9.65;;;5.05;;
4636;SDS011;2331;48.806;9.140;2023-03-12T08:19:57;10.80;;;5.55;;
4636;SDS011;2331;48.806;9.140;2023-03-12T08:22:24;13.70;;;5.45;;
4636;SDS011;2331;48.806;9.140;2023-03-12T08:24:52;8.48;;;5.05;;
4636;SDS011;2331;48.806;9.140;2023-03-12T08:27:18;10.00;;;5.38;;
4636;SDS011;2331;48.806;9.140;2023-03-12T08:29:45;10.15;;;4.72;;
4636;SDS011;2331;48.806;9.140;2023-03-12T08:32:12;10.85;;;5.45;;
4636;SDS011;2331;48.806;9.140;2023-03-12T08:34:38;9.85;;;4.95;;
4636;SDS011;2331;48.806;9.140;2023-03-12T08:37:05;10.98;;;5.18;;
4636;SDS011;2331;48.806;9.140;2023-03-12T08:39:32;10.68;;;5.38;;
4636;SDS011;2331;48.806;9.140;2023-03-12T08:42:00;7.80;;;5.10;;
4636;SDS011;2331;48.806;9.140;2023-03-12T08:44:27;11.02;;;5.85;;
4636;SDS011;2331;48.806;9.140;2023-03-12T08:46:54;9.57;;;6.00;;
4636;SDS011;2331;48.806;9.140;2023-03-12T08:49:21;11.57;;;6.10;;
4636;SDS011;2331;48.806;9.140;2023-03-12T08:51:48;8.68;;;5.80;;
4636;SDS011;2331;48.806;9.140;2023-03-12T08:54:16;10.02;;;5.90;;
4636;SDS011;2331;48.806;9.140;2023-03-12T08:56:43;11.75;;;6.25;;
4636;SDS011;2331;48.806;9.140;2023-03-12T08:59:12;11.13;;;5.82;;
4636;SDS011;2331;48.806;9.140;2023-03-12T09:01:39;11.32;;;6.85;;
4636;SDS011;2331;48.806;9.140;2023-03-12T09:04:06;8.85;;;5.43;;
4636;SDS011;2331;48.806;9.140;2023-03-12T09:06:32;9.02;;;5.57;;
4636;SDS011;2331;48.806;9.140;2023-03-12T09:09:00;8.32;;;5.40;;
4636;SDS011;2331;48.806;9.140;2023-03-12T09:11:29;12.43;;;5.75;;
4636;SDS011;2331;48.806;9.140;2023-03-12T09:13:56;12.75;;;5.78;;
4636;SDS011;2331;48.806;9.140;2023-03-12T09:16:25;11.45;;;5.95;;
4636;SDS011;2331;48.806;9.140;2023-03-12T09:18:51;9.50;;;5.60;;
4636;SDS011;2331;48.806;9.140;2023-03-12T09:21:18;11.25;;;6.20;;
4636;SDS011;2331;48.806;9.140;2023-03-12T09:23:46;7.82;;;4.50;;
4636;SDS011;2331;48.806;9.140;2023-03-12T09:26:13;8.30;;;5.10;;
4636;SDS011;2331;48.806;9.140;2023-03-12T09:28:40;7.25;;;4.72;;
4636;SDS011;2331;48.806;9.140;2023-03-12T09:31:06;11.77;;;5.10;;
4636;SDS011;2331;48.806;9.140;2023-03-12T09:33:34;7.70;;;5.10;;
4636;SDS011;2331;48.806;9.140;2023-03-12T09:36:01;8.93;;;4.40;;
4636;SDS011;2331;48.806;9.140;2023-03-12T09:38:28;8.10;;;4.90;;
4636;SDS011;2331;48.806;9.140;2023-03-12T09:40:56;6.63;;;4.40;;
4636;SDS011;2331;48.806;9.140;2023-03-12T09:43:24;9.02;;;4.90;;
4636;SDS011;2331;48.806;9.140;2023-03-12T09:45:54;7.63;;;4.80;;
4636;SDS011;2331;48.806;9.140;2023-03-12T09:48:23;10.75;;;4.97;;
4636;SDS011;2331;48.806;9.140;2023-03-12T09:50:58;8.30;;;5.03;;
4636;SDS011;2331;48.806;9.140;2023-03-12T09:53:28;5.53;;;3.90;;
4636;SDS011;2331;48.806;9.140;2023-03-12T09:56:01;6.05;;;4.10;;
4636;SDS011;2331;48.806;9.140;2023-03-12T09:58:33;6.80;;;4.65;;
4636;SDS011;2331;48.806;9.140;2023-03-12T10:01:05;7.50;;;4.53;;
4636;SDS011;2331;48.806;9.140;2023-03-12T10:03:46;8.90;;;5.18;;
4636;SDS011;2331;48.806;9.140;2023-03-12T10:06:23;6.65;;;4.30;;
4636;SDS011;2331;48.806;9.140;2023-03-12T10:08:57;5.38;;;3.63;;
4636;SDS011;2331;48.806;9.140;2023-03-12T10:11:37;5.15;;;3.95;;
4636;SDS011;2331;48.806;9.140;2023-03-12T10:14:16;6.50;;;3.95;;
4636;SDS011;2331;48.806;9.140;2023-03-12T10:16:54;7.00;;;3.38;;
4636;SDS011;2331;48.806;9.140;2023-03-12T10:19:36;2.35;;;1.98;;
4636;SDS011;2331;48.806;9.140;2023-03-12T10:22:20;2.85;;;1.90;;
4636;SDS011;2331;48.806;9.140;2023-03-12T10:25:00;2.38;;;1.70;;
4636;SDS011;2331;48.806;9.140;2023-03-12T10:27:38;2.00;;;1.42;;
4636;SDS011;2331;48.806;9.140;2023-03-12T10:30:12;1.77;;;1.42;;
4636;SDS011;2331;48.806;9.140;2023-03-12T10:32:43;1.75;;;1.20;;
4636;SDS011;2331;48.806;9.140;2023-03-12T10:35:14;1.60;;;1.33;;
4636;SDS011;2331;48.806;9.140;2023-03-12T10:37:44;1.95;;;1.60;;
4636;SDS011;2331;48.806;9.140;2023-03-12T10:40:14;1.75;;;1.20;;
4636;SDS011;2331;48.806;9.140;2023-03-12T10:42:42;3.28;;;1.30;;
4636;SDS011;2331;48.806;9.140;2023-03-12T10:47:57;1.98;;;1.60;;
4636;SDS011;2331;48.806;9.140;2023-03-12T10:50:28;2.10;;;1.38;;
4636;SDS011;2331;48.806;9.140;2023-03-12T10:53:18;2.28;;;1.33;;
4636;SDS011;2331;48.806;9.140;2023-03-12T10:55:57;2.35;;;1.40;;
4636;SDS011;2331;48.806;9.140;2023-03-12T10:58:29;2.22;;;1.50;;
4636;SDS011;2331;48.806;9.140;2023-03-12T11:00:59;1.83;;;1.30;;
4636;SDS011;2331;48.806;9.140;2023-03-12T11:03:28;1.45;;;1.40;;
4636;SDS011;2331;48.806;9.140;2023-03-12T11:05:55;1.98;;;1.20;;
4636;SDS011;2331;48.806;9.140;2023-03-12T11:08:26;2.40;;;1.40;;
4636;SDS011;2331;48.806;9.140;2023-03-12T11:10:54;2.28;;;1.33;;
4636;SDS011;2331;48.806;9.140;2023-03-12T11:13:27;1.45;;;1.13;;
4636;SDS011;2331;48.806;9.140;2023-03-12T11:15:55;2.85;;;1.40;;
4636;SDS011;2331;48.806;9.140;2023-03-12T11:18:25;1.95;;;1.10;;
4636;SDS011;2331;48.806;9.140;2023-03-12T11:20:55;3.22;;;1.23;;
4636;SDS011;2331;48.806;9.140;2023-03-12T11:23:24;1.77;;;1.20;;
4636;SDS011;2331;48.806;9.140;2023-03-12T11:25:55;2.83;;;1.13;;
4636;SDS011;2331;48.806;9.140;2023-03-12T11:28:27;1.83;;;0.90;;
4636;SDS011;2331;48.806;9.140;2023-03-12T11:30:59;1.95;;;1.30;;
4636;SDS011;2331;48.806;9.140;2023-03-12T11:33:27;2.83;;;1.10;;
4636;SDS011;2331;48.806;9.140;2023-03-12T11:35:57;3.17;;;1.40;;
4636;SDS011;2331;48.806;9.140;2023-03-12T11:38:41;1.52;;;1.05;;
4636;SDS011;2331;48.806;9.140;2023-03-12T11:41:19;1.42;;;0.77;;
4636;SDS011;2331;48.806;9.140;2023-03-12T11:44:02;3.22;;;1.17;;
4636;SDS011;2331;48.806;9.140;2023-03-12T11:46:48;3.80;;;1.10;;
4636;SDS011;2331;48.806;9.140;2023-03-12T11:49:25;2.28;;;0.90;;
4636;SDS011;2331;48.806;9.140;2023-03-12T11:52:04;2.05;;;1.10;;
4636;SDS011;2331;48.806;9.140;2023-03-12T11:54:43;4.63;;;1.10;;
4636;SDS011;2331;48.806;9.140;2023-03-12T11:57:26;2.22;;;0.80;;
4636;SDS011;2331;48.806;9.140;2023-03-12T12:00:10;1.50;;;0.80;;
4636;SDS011;2331;48.806;9.140;2023-03-12T12:05:53;6.85;;;1.20;;
4636;SDS011;2331;48.806;9.140;2023-03-12T12:08:32;2.15;;;0.98;;
4636;SDS011;2331;48.806;9.140;2023-03-12T12:11:16;2.78;;;1.00;;
4636;SDS011;2331;48.806;9.140;2023-03-12T12:13:51;1.90;;;1.05;;
4636;SDS011;2331;48.806;9.140;2023-03-12T12:16:32;2.90;;;1.02;;
4636;SDS011;2331;48.806;9.140;2023-03-12T12:19:16;3.13;;;1.00;;
4636;SDS011;2331;48.806;9.140;2023-03-12T12:22:01;3.35;;;1.40;;
4636;SDS011;2331;48.806;9.140;2023-03-12T12:24:37;3.95;;;1.40;;
4636;SDS011;2331;48.806;9.140;2023-03-12T12:27:16;4.32;;;1.58;;
4636;SDS011;2331;48.806;9.140;2023-03-12T12:29:50;5.13;;;1.63;;
4636;SDS011;2331;48.806;9.140;2023-03-12T12:32:34;3.20;;;1.27;;
4636;SDS011;2331;48.806;9.140;2023-03-12T12:35:24;2.67;;;1.05;;
4636;SDS011;2331;48.806;9.140;2023-03-12T12:37:55;2.92;;;1.10;;
4636;SDS011;2331;48.806;9.140;2023-03-12T12:40:26;2.45;;;1.13;;
4636;SDS011;2331;48.806;9.140;2023-03-12T12:42:59;2.85;;;1.35;;
4636;SDS011;2331;48.806;9.140;2023-03-12T12:45:31;4.20;;;1.40;;
4636;SDS011;2331;48.806;9.140;2023-03-12T12:47:59;1.75;;;1.00;;
4636;SDS011;2331;48.806;9.140;2023-03-12T12:50:30;4.05;;;1.80;;
4636;SDS011;2331;48.806;9.140;2023-03-12T12:53:02;6.80;;;2.13;;
4636;SDS011;2331;48.806;9.140;2023-03-12T12:55:36;4.80;;;1.73;;
4636;SDS011;2331;48.806;9.140;2023-03-12T12:58:11;2.08;;;1.08;;
4636;SDS011;2331;48.806;9.140;2023-03-12T13:00:43;5.60;;;1.50;;
4636;SDS011;2331;48.806;9.140;2023-03-12T13:03:13;4.55;;;1.33;;
4636;SDS011;2331;48.806;9.140;2023-03-12T13:05:44;3.88;;;1.40;;
4636;SDS011;2331;48.806;9.140;2023-03-12T13:11:26;3.40;;;1.33;;
4636;SDS011;2331;48.806;9.140;2023-03-12T13:16:46;8.23;;;1.80;;
4636;SDS011;2331;48.806;9.140;2023-03-12T13:19:20;3.75;;;1.40;;
4636;SDS011;2331;48.806;9.140;2023-03-12T13:21:52;5.22;;;2.10;;
4636;SDS011;2331;48.806;9.140;2023-03-12T13:24:28;4.60;;;1.60;;
4636;SDS011;2331;48.806;9.140;2023-03-12T13:26:59;2.30;;;1.30;;
4636;SDS011;2331;48.806;9.140;2023-03-12T13:29:36;2.78;;;1.20;;
4636;SDS011;2331;48.806;9.140;2023-03-12T13:32:06;3.75;;;1.27;;
4636;SDS011;2331;48.806;9.140;2023-03-12T13:37:19;4.82;;;1.42;;
4636;SDS011;2331;48.806;9.140;2023-03-12T13:40:37;8.73;;;2.22;;
4636;SDS011;2331;48.806;9.140;2023-03-12T13:43:29;7.18;;;1.75;;
4636;SDS011;2331;48.806;9.140;2023-03-12T13:46:05;5.53;;;1.55;;
4636;SDS011;2331;48.806;9.140;2023-03-12T13:48:34;5.63;;;2.15;;
4636;SDS011;2331;48.806;9.140;2023-03-12T13:51:09;6.60;;;2.45;;
4636;SDS011;2331;48.806;9.140;2023-03-12T13:53:40;7.10;;;1.83;;
4636;SDS011;2331;48.806;9.140;2023-03-12T13:56:13;3.95;;;1.50;;
4636;SDS011;2331;48.806;9.140;2023-03-12T13:58:47;4.30;;;1.50;;
4636;SDS011;2331;48.806;9.140;2023-03-12T14:01:18;5.68;;;1.67;;
4636;SDS011;2331;48.806;9.140;2023-03-12T14:03:47;4.93;;;1.73;;
4636;SDS011;2331;48.806;9.140;2023-03-12T14:06:17;7.35;;;1.98;;
4636;SDS011;2331;48.806;9.140;2023-03-12T14:08:55;10.82;;;2.55;;
4636;SDS011;2331;48.806;9.140;2023-03-12T14:11:35;7.03;;;1.80;;
4636;SDS011;2331;48.806;9.140;2023-03-12T14:14:20;4.53;;;1.77;;
4636;SDS011;2331;48.806;9.140;2023-03-12T14:17:01;10.82;;;1.90;;
4636;SDS011;2331;48.806;9.140;2023-03-12T14:19:30;4.53;;;1.25;;
4636;SDS011;2331;48.806;9.140;2023-03-12T14:22:00;5.85;;;1.70;;
4636;SDS011;2331;48.806;9.140;2023-03-12T14:24:31;4.72;;;1.95;;
4636;SDS011;2331;48.806;9.140;2023-03-12T14:27:01;3.35;;;1.70;;
4636;SDS011;2331;48.806;9.140;2023-03-12T14:29:30;4.70;;;1.70;;
4636;SDS011;2331;48.806;9.140;2023-03-12T14:32:01;6.72;;;1.83;;
4636;SDS011;2331;48.806;9.140;2023-03-12T14:34:31;6.95;;;1.42;;
4636;SDS011;2331;48.806;9.140;2023-03-12T14:37:05;4.30;;;1.40;;
4636;SDS011;2331;48.806;9.140;2023-03-12T14:39:40;7.00;;;1.90;;
4636;SDS011;2331;48.806;9.140;2023-03-12T14:42:10;4.60;;;1.50;;
4636;SDS011;2331;48.806;9.140;2023-03-12T14:44:53;6.57;;;1.80;;
4636;SDS011;2331;48.806;9.140;2023-03-12T14:47:23;2.58;;;1.00;;
4636;SDS011;2331;48.806;9.140;2023-03-12T14:49:53;5.00;;;1.77;;
4636;SDS011;2331;48.806;9.140;2023-03-12T14:52:22;7.18;;;1.65;;
4636;SDS011;2331;48.806;9.140;2023-03-12T14:54:54;5.57;;;1.30;;
4636;SDS011;2331;48.806;9.140;2023-03-12T14:57:23;4.68;;;1.95;;
4636;SDS011;2331;48.806;9.140;2023-03-12T14:59:51;5.85;;;1.42;;
4636;SDS011;2331;48.806;9.140;2023-03-12T15:02:18;5.30;;;1.75;;
4636;SDS011;2331;48.806;9.140;2023-03-12T15:04:46;5.43;;;1.65;;
4636;SDS011;2331;48.806;9.140;2023-03-12T15:07:14;4.40;;;1.60;;
4636;SDS011;2331;48.806;9.140;2023-03-12T15:09:45;2.95;;;1.27;;
4636;SDS011;2331;48.806;9.140;2023-03-12T15:12:18;6.40;;;1.38;;
4636;SDS011;2331;48.806;9.140;2023-03-12T15:14:49;4.50;;;1.40;;
4636;SDS011;2331;48.806;9.140;2023-03-12T15:17:20;7.68;;;1.42;;
4636;SDS011;2331;48.806;9.140;2023-03-12T15:19:49;3.42;;;1.35;;
4636;SDS011;2331;48.806;9.140;2023-03-12T15:22:19;7.50;;;1.55;;
4636;SDS011;2331;48.806;9.140;2023-03-12T15:24:48;6.43;;;1.42;;
4636;SDS011;2331;48.806;9.140;2023-03-12T15:27:17;4.20;;;1.30;;
4636;SDS011;2331;48.806;9.140;2023-03-12T15:29:45;7.53;;;1.45;;
4636;SDS011;2331;48.806;9.140;2023-03-12T15:32:14;5.35;;;1.48;;
4636;SDS011;2331;48.806;9.140;2023-03-12T15:34:44;3.30;;;1.55;;
4636;SDS011;2331;48.806;9.140;2023-03-12T15:37:19;6.30;;;1.55;;
4636;SDS011;2331;48.806;9.140;2023-03-12T15:39:48;7.68;;;1.55;;
4636;SDS011;2331;48.806;9.140;2023-03-12T15:42:17;2.65;;;1.20;;